Time;durP1;ratioP1;P1;durP2;ratioP2;P2;SDS_P1;SDS_P2;PMS_P1;PMS_P2;Temp;Humidity;BMP_temperature;BMP_pressure;BME280_temperature;BME280_humidity;BME280_pressure;Samples;Min_cycle;Max_cycle;Signal;HPM_P1;HPM_P2
2021/12/09 00:06:59;;;;;;;0.20;0.00;;;6.80;99.90;;;;;;20991411;28;20238;-73
2021/12/09 00:17:06;;;;;;;0.20;0.10;;;6.80;99.90;;;;;;21062078;28;20523;-74
2021/12/09 00:27:10;;;;;;;0.20;0.10;;;6.00;99.90;;;;;;21073933;28;20336;-74
2021/12/09 00:37:22;;;;;;;0.20;0.00;;;5.90;99.90;;;;;;21072966;28;20200;-75
2021/12/09 00:47:26;;;;;;;0.20;0.10;;;5.80;99.90;;;;;;21072705;28;20291;-74
2021/12/09 00:57:32;;;;;;;0.20;0.00;;;5.40;99.90;;;;;;21071681;28;20201;-74
2021/12/09 01:07:36;;;;;;;0.20;0.10;;;5.70;99.90;;;;;;21070750;28;20219;-74
2021/12/09 01:17:41;;;;;;;0.20;0.10;;;5.50;99.90;;;;;;21070472;28;20221;-75
2021/12/09 01:27:47;;;;;;;0.20;0.10;;;5.40;99.90;;;;;;21069282;28;20235;-75
2021/12/09 01:37:55;;;;;;;0.20;0.10;;;5.60;99.90;;;;;;21068202;28;20196;-75
2021/12/09 01:47:59;;;;;;;0.20;0.10;;;5.50;99.90;;;;;;20994833;28;20612;-75
2021/12/09 01:58:07;;;;;;;0.20;0.10;;;5.70;99.90;;;;;;20984295;28;20246;-73
2021/12/09 02:08:14;;;;;;;0.20;0.10;;;5.10;99.90;;;;;;20983980;28;20220;-74
2021/12/09 02:18:21;;;;;;;0.20;0.10;;;5.20;99.90;;;;;;21063128;28;20227;-75
2021/12/09 02:28:27;;;;;;;0.20;0.10;;;5.50;99.90;;;;;;21065952;28;20231;-74
2021/12/09 02:38:30;;;;;;;0.20;0.10;;;5.10;99.90;;;;;;21064835;28;20204;-75
2021/12/09 02:48:35;;;;;;;0.20;0.10;;;4.70;99.90;;;;;;20986207;28;20235;-76
2021/12/09 02:58:40;;;;;;;0.20;0.10;;;4.90;99.90;;;;;;20982341;28;20561;-76
2021/12/09 03:08:45;;;;;;;0.20;0.10;;;5.40;99.90;;;;;;20914691;23;20261;-72
2021/12/09 03:18:51;;;;;;;0.20;0.10;;;5.60;99.90;;;;;;20900458;28;20201;-72
2021/12/09 03:28:59;;;;;;;0.20;0.10;;;5.40;99.90;;;;;;20903326;28;20218;-72
2021/12/09 03:39:06;;;;;;;0.20;0.10;;;5.20;99.90;;;;;;20919740;28;20251;-71
2021/12/09 03:49:11;;;;;;;0.20;0.10;;;5.10;99.90;;;;;;20912333;28;20229;-71
2021/12/09 03:59:15;;;;;;;0.20;0.10;;;5.30;99.90;;;;;;20923547;23;20251;-75
2021/12/09 04:09:22;;;;;;;0.20;0.10;;;5.40;99.90;;;;;;20744264;28;20285;-74
2021/12/09 04:19:26;;;;;;;0.20;0.10;;;4.80;99.90;;;;;;20742793;28;20195;-74
2021/12/09 04:29:30;;;;;;;0.20;0.10;;;4.80;99.90;;;;;;20743729;28;20222;-73
2021/12/09 04:39:34;;;;;;;0.20;0.10;;;5.00;99.90;;;;;;20741407;28;20546;-75
2021/12/09 04:49:39;;;;;;;0.20;0.10;;;5.50;99.90;;;;;;20741994;28;20234;-75
2021/12/09 04:59:43;;;;;;;0.20;0.10;;;5.50;99.90;;;;;;20742196;28;20545;-75
2021/12/09 05:09:51;;;;;;;0.20;0.10;;;5.50;99.90;;;;;;20740196;28;20227;-74
2021/12/09 05:19:55;;;;;;;0.20;0.10;;;5.50;99.90;;;;;;20739722;28;20199;-74
2021/12/09 05:30:07;;;;;;;0.20;0.10;;;5.30;99.90;;;;;;20739097;28;20246;-75
2021/12/09 05:40:15;;;;;;;0.20;0.10;;;5.30;99.90;;;;;;20739335;28;20199;-73
2021/12/09 05:50:20;;;;;;;0.20;0.10;;;5.40;99.90;;;;;;20737402;28;20226;-74
2021/12/09 06:00:23;;;;;;;0.20;0.10;;;5.30;99.90;;;;;;20735834;28;20286;-73
2021/12/09 06:10:29;;;;;;;0.20;0.10;;;5.30;99.90;;;;;;20734892;28;20680;-76
2021/12/09 06:20:32;;;;;;;0.20;0.20;;;5.90;99.90;;;;;;20736551;28;20253;-75
2021/12/09 06:30:37;;;;;;;0.30;0.30;;;6.20;99.90;;;;;;20736170;28;20280;-74
2021/12/09 06:40:41;;;;;;;0.20;0.10;;;6.30;99.90;;;;;;20733104;28;20225;-74
2021/12/09 06:50:46;;;;;;;0.20;0.10;;;6.30;99.90;;;;;;20732421;28;20222;-75
2021/12/09 07:00:51;;;;;;;0.20;0.10;;;6.20;99.90;;;;;;20729731;28;20296;-74
2021/12/09 07:10:56;;;;;;;0.20;0.10;;;5.90;99.90;;;;;;20738643;28;20229;-74
2021/12/09 07:21:00;;;;;;;0.20;0.10;;;6.00;99.90;;;;;;20745849;28;20199;-77
2021/12/09 07:31:05;;;;;;;0.20;0.20;;;5.70;99.90;;;;;;20747006;28;20246;-74
2021/12/09 07:41:09;;;;;;;0.20;0.10;;;5.60;99.90;;;;;;20747620;28;20279;-71
2021/12/09 07:51:14;;;;;;;0.20;0.10;;;5.60;99.90;;;;;;20748247;28;20226;-76
2021/12/09 08:01:17;;;;;;;0.20;0.10;;;5.80;99.90;;;;;;20742076;28;20237;-71
2021/12/09 08:11:23;;;;;;;0.20;0.00;;;6.00;99.90;;;;;;20744331;28;20234;-74
2021/12/09 08:21:27;;;;;;;0.20;0.10;;;6.20;99.90;;;;;;20741828;28;20258;-73
2021/12/09 08:31:33;;;;;;;0.20;0.00;;;6.40;99.90;;;;;;20741701;28;20358;-78
2021/12/09 08:41:48;;;;;;;1.60;1.50;;;6.80;99.90;;;;;;20739637;28;20663;-76
2021/12/09 08:51:54;;;;;;;0.20;0.07;;;7.10;99.90;;;;;;20738991;28;20249;-76
2021/12/09 09:01:57;;;;;;;0.20;0.00;;;7.20;99.90;;;;;;20738707;28;20226;-74
2021/12/09 09:12:05;;;;;;;0.20;0.10;;;7.60;99.90;;;;;;20738939;28;20683;-74
2021/12/09 09:22:08;;;;;;;0.20;0.10;;;7.90;99.90;;;;;;20738779;28;20302;-77
2021/12/09 09:32:13;;;;;;;0.20;0.10;;;8.50;99.90;;;;;;20737757;28;20233;-75
2021/12/09 09:42:44;;;;;;;0.20;0.10;;;8.80;99.90;;;;;;20737687;28;20202;-73
2021/12/09 09:52:50;;;;;;;0.20;0.10;;;9.10;99.90;;;;;;20734986;28;20332;-77
2021/12/09 10:02:59;;;;;;;0.20;0.10;;;9.70;99.90;;;;;;20737477;28;20671;-78
2021/12/09 10:13:05;;;;;;;0.20;0.10;;;9.60;99.90;;;;;;20737827;28;20313;-76
2021/12/09 10:23:27;;;;;;;0.20;0.00;;;9.90;99.90;;;;;;20736901;28;20293;-78
2021/12/09 10:34:00;;;;;;;0.20;0.10;;;10.80;99.90;;;;;;20735182;28;20272;-76
2021/12/09 10:44:07;;;;;;;0.20;0.10;;;10.60;99.90;;;;;;20744814;28;20622;-74
2021/12/09 10:54:11;;;;;;;0.20;0.10;;;9.90;99.90;;;;;;20749076;28;20313;-77
2021/12/09 11:04:23;;;;;;;0.20;0.10;;;10.10;99.90;;;;;;20751186;28;20230;-76
2021/12/09 11:14:28;;;;;;;0.20;0.10;;;10.20;99.90;;;;;;20707124;28;20760;-79
2021/12/09 11:24:38;;;;;;;0.20;0.10;;;9.80;99.90;;;;;;20711172;28;20207;-75
2021/12/09 11:34:50;;;;;;;0.20;0.10;;;10.10;99.90;;;;;;20653276;28;20833;-74
2021/12/09 11:44:53;;;;;;;0.20;0.10;;;10.40;99.90;;;;;;20651802;28;20206;-75
2021/12/09 11:55:02;;;;;;;0.20;0.10;;;10.70;99.90;;;;;;20651786;28;20203;-72
2021/12/09 12:15:52;;;;;;;0.20;0.10;;;11.00;99.90;;;;;;20707038;28;20213;-73
2021/12/09 12:47:36;;;;;;;0.20;0.10;;;11.40;99.90;;;;;;20731310;28;20341;-72
2021/12/09 12:57:44;;;;;;;0.20;0.10;;;11.50;99.90;;;;;;20729934;28;20209;-74
2021/12/09 13:08:10;;;;;;;0.20;0.10;;;12.80;99.90;;;;;;20727298;28;20234;-73
2021/12/09 13:18:58;;;;;;;0.40;0.40;;;12.60;99.90;;;;;;20728094;28;20289;-73
2021/12/09 13:29:09;;;;;;;0.20;0.10;;;12.50;99.90;;;;;;20725340;28;20233;-74
2021/12/09 13:39:32;;;;;;;0.20;0.10;;;13.10;99.90;;;;;;20719930;28;20209;-74
2021/12/09 13:49:45;;;;;;;0.20;0.10;;;12.60;99.90;;;;;;20726789;28;20234;-74
2021/12/09 13:59:50;;;;;;;0.20;0.10;;;12.30;99.90;;;;;;20726536;28;20238;-72
2021/12/09 14:09:59;;;;;;;0.20;0.10;;;12.10;99.90;;;;;;20723579;28;20242;-72
2021/12/09 14:20:07;;;;;;;0.20;0.10;;;12.10;99.90;;;;;;20723301;28;20695;-72
2021/12/09 14:30:15;;;;;;;0.20;0.10;;;12.00;99.90;;;;;;20723350;28;20300;-73
2021/12/09 14:40:27;;;;;;;0.20;0.10;;;11.90;99.90;;;;;;20722420;28;20202;-74
2021/12/09 14:50:35;;;;;;;0.20;0.10;;;11.80;99.90;;;;;;20727199;28;20230;-75
2021/12/09 15:01:00;;;;;;;0.20;0.10;;;11.70;99.90;;;;;;20733611;28;20715;-75
2021/12/09 15:11:13;;;;;;;0.20;0.10;;;11.70;99.90;;;;;;20730069;28;20218;-74
2021/12/09 15:21:21;;;;;;;0.20;0.10;;;11.80;99.90;;;;;;20729525;28;20229;-75
2021/12/09 15:31:24;;;;;;;0.20;0.10;;;11.70;99.90;;;;;;20741638;28;20253;-76
2021/12/09 15:41:33;;;;;;;0.20;0.10;;;11.60;99.90;;;;;;20747911;28;20250;-75
2021/12/09 15:51:41;;;;;;;3.67;3.50;;;11.60;99.90;;;;;;20729397;28;20230;-75
2021/12/09 16:01:49;;;;;;;0.20;0.10;;;11.60;99.90;;;;;;20746579;28;20748;-72
2021/12/09 16:11:59;;;;;;;0.20;0.10;;;11.40;99.90;;;;;;20745136;28;20230;-77
2021/12/09 16:32:23;;;;;;;0.20;0.00;;;11.10;99.90;;;;;;20735192;28;20234;-76
2021/12/09 16:42:28;;;;;;;0.20;0.10;;;11.00;99.90;;;;;;20743424;28;20195;-75
2021/12/09 16:52:34;;;;;;;0.20;0.10;;;10.80;99.90;;;;;;20742200;28;20325;-75
2021/12/09 17:02:53;;;;;;;0.20;0.10;;;10.50;99.90;;;;;;20739224;28;20223;-75
2021/12/09 17:12:58;;;;;;;0.20;0.10;;;10.50;99.90;;;;;;20736705;28;20222;-75
2021/12/09 17:23:06;;;;;;;0.20;0.10;;;10.30;99.90;;;;;;20740972;28;20206;-74
2021/12/09 17:33:09;;;;;;;0.20;0.10;;;10.30;99.90;;;;;;20740564;28;20355;-71
2021/12/09 17:43:21;;;;;;;0.20;0.10;;;10.10;99.90;;;;;;20736278;28;20201;-74
2021/12/09 17:53:30;;;;;;;0.20;0.10;;;10.10;99.90;;;;;;20728758;28;20222;-74
2021/12/09 18:03:37;;;;;;;0.20;0.10;;;10.20;99.90;;;;;;20736301;28;20231;-74
2021/12/09 18:13:41;;;;;;;0.20;0.10;;;10.40;99.90;;;;;;20736494;28;20242;-74
2021/12/09 18:23:46;;;;;;;0.20;0.10;;;10.20;99.90;;;;;;20734924;28;20201;-74
2021/12/09 18:33:51;;;;;;;0.20;0.10;;;9.90;99.90;;;;;;20733361;28;20257;-75
2021/12/09 18:43:59;;;;;;;0.20;0.10;;;9.70;99.90;;;;;;20732134;28;20214;-73
2021/12/09 18:54:06;;;;;;;0.20;0.10;;;9.40;99.90;;;;;;20735783;28;20230;-73
2021/12/09 19:04:13;;;;;;;0.20;0.10;;;9.50;99.90;;;;;;20744201;28;20222;-71
2021/12/09 19:14:20;;;;;;;0.20;0.10;;;9.40;99.90;;;;;;20748609;28;20253;-71
2021/12/09 19:24:30;;;;;;;0.20;0.10;;;9.10;99.90;;;;;;20746888;28;20318;-73
2021/12/09 19:34:34;;;;;;;0.20;0.00;;;9.00;99.90;;;;;;20744532;28;20241;-73
2021/12/09 19:44:40;;;;;;;0.20;0.10;;;8.90;99.90;;;;;;20760628;28;20198;-72
2021/12/09 19:54:52;;;;;;;0.20;0.10;;;8.90;99.90;;;;;;20745848;28;20310;-73
2021/12/09 20:04:58;;;;;;;0.20;0.10;;;8.90;99.90;;;;;;20747956;28;20230;-72
2021/12/09 20:15:02;;;;;;;0.20;0.10;;;9.10;99.90;;;;;;20756013;28;20230;-76
2021/12/09 20:25:10;;;;;;;0.20;0.00;;;9.00;99.90;;;;;;20741370;28;20519;-73
2021/12/09 20:35:14;;;;;;;0.20;0.10;;;9.00;99.90;;;;;;20737309;28;20219;-74
2021/12/09 20:45:29;;;;;;;0.20;0.10;;;8.90;99.90;;;;;;20740679;28;20206;-75
2021/12/09 20:55:36;;;;;;;0.20;0.10;;;9.00;99.90;;;;;;20741769;28;20692;-75
2021/12/09 21:05:42;;;;;;;0.20;0.10;;;8.90;99.90;;;;;;20739459;28;20245;-76
2021/12/09 21:16:08;;;;;;;0.20;0.10;;;8.60;99.90;;;;;;20737314;28;20231;-76
2021/12/09 21:26:35;;;;;;;0.20;0.10;;;8.70;99.90;;;;;;20734679;28;20206;-73
2021/12/09 21:36:47;;;;;;;0.20;0.10;;;8.70;99.90;;;;;;20736562;28;20293;-74
2021/12/09 21:46:52;;;;;;;0.20;0.10;;;8.70;99.90;;;;;;20669241;28;20224;-74
2021/12/09 21:57:24;;;;;;;0.20;0.00;;;8.80;99.90;;;;;;20684104;28;20653;-76
2021/12/09 22:07:53;;;;;;;0.20;0.00;;;8.70;99.90;;;;;;20724289;28;20707;-75
2021/12/09 22:18:02;;;;;;;0.20;0.00;;;8.50;99.90;;;;;;20724176;28;20206;-74
2021/12/09 22:28:36;;;;;;;0.20;0.00;;;8.30;99.90;;;;;;20723130;28;20230;-74
2021/12/09 22:39:31;;;;;;;0.20;0.07;;;8.30;99.90;;;;;;20720416;28;20198;-74
2021/12/09 22:50:03;;;;;;;0.20;0.00;;;8.10;99.90;;;;;;20720535;28;20734;-74
2021/12/09 23:00:34;;;;;;;0.20;0.10;;;8.00;99.90;;;;;;20732596;28;20329;-74
2021/12/09 23:10:45;;;;;;;0.20;0.10;;;8.20;99.90;;;;;;20735473;28;20223;-73
2021/12/09 23:20:49;;;;;;;0.20;0.00;;;8.50;99.90;;;;;;20734309;28;20545;-71
2021/12/09 23:30:58;;;;;;;0.20;0.10;;;8.20;99.90;;;;;;20733023;28;20325;-74
2021/12/09 23:41:02;;;;;;;0.20;0.10;;;8.30;99.90;;;;;;20731242;28;20556;-75
2021/12/09 23:51:11;;;;;;;0.20;0.10;;;8.50;99.90;;;;;;20737250;28;20577;-73
